sensor_id;sensor_type;location;lat;lon;timestamp;P1;durP1;ratioP1;P2;durP2;ratioP2
2674;SDS011;1347;42.122;24.746;2022-11-15T00:02:05;50.43;;;35.90;;
2674;SDS011;1347;42.122;24.746;2022-11-15T00:04:32;48.43;;;34.13;;
2674;SDS011;1347;42.122;24.746;2022-11-15T00:07:00;52.43;;;35.40;;
2674;SDS011;1347;42.122;24.746;2022-11-15T00:09:27;50.20;;;36.27;;
2674;SDS011;1347;42.122;24.746;2022-11-15T00:11:54;50.87;;;33.13;;
2674;SDS011;1347;42.122;24.746;2022-11-15T00:14:21;48.70;;;33.50;;
2674;SDS011;1347;42.122;24.746;2022-11-15T00:16:48;52.90;;;34.00;;
2674;SDS011;1347;42.122;24.746;2022-11-15T00:19:15;45.67;;;35.50;;
2674;SDS011;1347;42.122;24.746;2022-11-15T00:21:42;43.23;;;34.50;;
2674;SDS011;1347;42.122;24.746;2022-11-15T00:24:10;51.53;;;35.10;;
2674;SDS011;1347;42.122;24.746;2022-11-15T00:26:37;51.90;;;36.60;;
2674;SDS011;1347;42.122;24.746;2022-11-15T00:29:04;52.73;;;34.77;;
2674;SDS011;1347;42.122;24.746;2022-11-15T00:31:31;48.80;;;36.00;;
2674;SDS011;1347;42.122;24.746;2022-11-15T00:33:58;50.17;;;34.53;;
2674;SDS011;1347;42.122;24.746;2022-11-15T00:36:24;42.53;;;33.60;;
2674;SDS011;1347;42.122;24.746;2022-11-15T00:38:51;45.13;;;33.00;;
2674;SDS011;1347;42.122;24.746;2022-11-15T00:41:20;51.03;;;33.93;;
2674;SDS011;1347;42.122;24.746;2022-11-15T00:43:46;50.37;;;35.17;;
2674;SDS011;1347;42.122;24.746;2022-11-15T00:46:13;45.93;;;33.70;;
2674;SDS011;1347;42.122;24.746;2022-11-15T00:48:40;41.10;;;31.53;;
2674;SDS011;1347;42.122;24.746;2022-11-15T00:51:07;49.20;;;33.83;;
2674;SDS011;1347;42.122;24.746;2022-11-15T00:53:34;45.63;;;30.90;;
2674;SDS011;1347;42.122;24.746;2022-11-15T00:56:01;46.00;;;33.50;;
2674;SDS011;1347;42.122;24.746;2022-11-15T00:58:30;45.97;;;32.83;;
2674;SDS011;1347;42.122;24.746;2022-11-15T01:01:01;44.33;;;31.83;;
2674;SDS011;1347;42.122;24.746;2022-11-15T01:03:32;43.33;;;32.10;;
2674;SDS011;1347;42.122;24.746;2022-11-15T01:05:59;47.10;;;33.50;;
2674;SDS011;1347;42.122;24.746;2022-11-15T01:08:26;46.90;;;33.10;;
2674;SDS011;1347;42.122;24.746;2022-11-15T01:10:53;46.73;;;31.10;;
2674;SDS011;1347;42.122;24.746;2022-11-15T01:13:20;51.60;;;32.57;;
2674;SDS011;1347;42.122;24.746;2022-11-15T01:15:48;46.40;;;31.10;;
2674;SDS011;1347;42.122;24.746;2022-11-15T01:18:15;50.37;;;29.87;;
2674;SDS011;1347;42.122;24.746;2022-11-15T01:20:42;42.90;;;29.73;;
2674;SDS011;1347;42.122;24.746;2022-11-15T01:23:09;46.80;;;29.80;;
2674;SDS011;1347;42.122;24.746;2022-11-15T01:25:37;45.17;;;29.10;;
2674;SDS011;1347;42.122;24.746;2022-11-15T01:28:04;43.17;;;28.90;;
2674;SDS011;1347;42.122;24.746;2022-11-15T01:30:31;41.93;;;29.90;;
2674;SDS011;1347;42.122;24.746;2022-11-15T01:32:59;40.43;;;29.03;;
2674;SDS011;1347;42.122;24.746;2022-11-15T01:35:26;42.73;;;28.27;;
2674;SDS011;1347;42.122;24.746;2022-11-15T01:37:53;36.80;;;26.50;;
2674;SDS011;1347;42.122;24.746;2022-11-15T01:40:20;38.50;;;27.73;;
2674;SDS011;1347;42.122;24.746;2022-11-15T01:42:46;36.30;;;26.33;;
2674;SDS011;1347;42.122;24.746;2022-11-15T01:45:14;40.67;;;28.17;;
2674;SDS011;1347;42.122;24.746;2022-11-15T01:47:42;39.87;;;26.10;;
2674;SDS011;1347;42.122;24.746;2022-11-15T01:50:16;37.40;;;24.17;;
2674;SDS011;1347;42.122;24.746;2022-11-15T01:52:46;46.03;;;30.70;;
2674;SDS011;1347;42.122;24.746;2022-11-15T01:55:14;41.90;;;26.93;;
2674;SDS011;1347;42.122;24.746;2022-11-15T01:57:45;44.40;;;28.37;;
2674;SDS011;1347;42.122;24.746;2022-11-15T02:00:16;39.43;;;29.10;;
2674;SDS011;1347;42.122;24.746;2022-11-15T02:02:43;39.70;;;27.03;;
2674;SDS011;1347;42.122;24.746;2022-11-15T02:05:10;33.23;;;25.43;;
2674;SDS011;1347;42.122;24.746;2022-11-15T02:07:38;35.17;;;26.90;;
2674;SDS011;1347;42.122;24.746;2022-11-15T02:10:07;38.13;;;27.07;;
2674;SDS011;1347;42.122;24.746;2022-11-15T02:12:35;41.23;;;26.90;;
2674;SDS011;1347;42.122;24.746;2022-11-15T02:15:03;40.83;;;27.90;;
2674;SDS011;1347;42.122;24.746;2022-11-15T02:17:35;41.43;;;29.10;;
2674;SDS011;1347;42.122;24.746;2022-11-15T02:20:27;39.60;;;28.23;;
2674;SDS011;1347;42.122;24.746;2022-11-15T02:23:11;52.37;;;30.50;;
2674;SDS011;1347;42.122;24.746;2022-11-15T02:26:03;37.37;;;26.13;;
2674;SDS011;1347;42.122;24.746;2022-11-15T02:28:51;40.23;;;28.87;;
2674;SDS011;1347;42.122;24.746;2022-11-15T02:31:27;38.30;;;29.10;;
2674;SDS011;1347;42.122;24.746;2022-11-15T02:33:59;40.47;;;26.50;;
2674;SDS011;1347;42.122;24.746;2022-11-15T02:36:37;41.77;;;26.53;;
2674;SDS011;1347;42.122;24.746;2022-11-15T02:39:10;40.90;;;29.13;;
2674;SDS011;1347;42.122;24.746;2022-11-15T02:41:48;43.37;;;27.13;;
2674;SDS011;1347;42.122;24.746;2022-11-15T02:44:21;43.17;;;26.10;;
2674;SDS011;1347;42.122;24.746;2022-11-15T02:46:52;39.10;;;27.47;;
2674;SDS011;1347;42.122;24.746;2022-11-15T02:49:43;40.60;;;26.50;;
2674;SDS011;1347;42.122;24.746;2022-11-15T02:52:14;38.80;;;26.83;;
2674;SDS011;1347;42.122;24.746;2022-11-15T02:54:43;43.67;;;30.13;;
2674;SDS011;1347;42.122;24.746;2022-11-15T02:57:19;45.60;;;29.80;;
2674;SDS011;1347;42.122;24.746;2022-11-15T03:00:04;38.50;;;28.30;;
2674;SDS011;1347;42.122;24.746;2022-11-15T03:02:43;39.67;;;28.07;;
2674;SDS011;1347;42.122;24.746;2022-11-15T03:05:24;36.97;;;27.20;;
2674;SDS011;1347;42.122;24.746;2022-11-15T03:08:00;39.73;;;27.93;;
2674;SDS011;1347;42.122;24.746;2022-11-15T03:10:32;40.87;;;26.80;;
2674;SDS011;1347;42.122;24.746;2022-11-15T03:13:11;36.67;;;27.80;;
2674;SDS011;1347;42.122;24.746;2022-11-15T03:15:49;36.90;;;25.97;;
2674;SDS011;1347;42.122;24.746;2022-11-15T03:18:30;34.23;;;25.17;;
2674;SDS011;1347;42.122;24.746;2022-11-15T03:21:00;37.37;;;25.47;;
2674;SDS011;1347;42.122;24.746;2022-11-15T03:23:32;35.77;;;24.70;;
2674;SDS011;1347;42.122;24.746;2022-11-15T03:26:03;37.53;;;28.70;;
2674;SDS011;1347;42.122;24.746;2022-11-15T03:28:35;39.97;;;27.20;;
2674;SDS011;1347;42.122;24.746;2022-11-15T03:31:04;34.97;;;25.63;;
2674;SDS011;1347;42.122;24.746;2022-11-15T03:33:54;30.40;;;23.43;;
2674;SDS011;1347;42.122;24.746;2022-11-15T03:36:24;34.77;;;25.10;;
2674;SDS011;1347;42.122;24.746;2022-11-15T03:38:52;30.90;;;22.90;;
2674;SDS011;1347;42.122;24.746;2022-11-15T03:41:23;30.80;;;21.57;;
2674;SDS011;1347;42.122;24.746;2022-11-15T03:43:57;27.97;;;21.20;;
2674;SDS011;1347;42.122;24.746;2022-11-15T03:46:31;30.93;;;23.53;;
2674;SDS011;1347;42.122;24.746;2022-11-15T03:49:06;33.67;;;24.27;;
2674;SDS011;1347;42.122;24.746;2022-11-15T03:51:36;29.70;;;22.43;;
2674;SDS011;1347;42.122;24.746;2022-11-15T03:54:03;29.67;;;23.00;;
2674;SDS011;1347;42.122;24.746;2022-11-15T03:56:31;33.73;;;23.20;;
2674;SDS011;1347;42.122;24.746;2022-11-15T03:58:57;33.37;;;21.17;;
2674;SDS011;1347;42.122;24.746;2022-11-15T04:01:24;34.20;;;22.30;;
2674;SDS011;1347;42.122;24.746;2022-11-15T04:03:51;35.30;;;22.00;;
2674;SDS011;1347;42.122;24.746;2022-11-15T04:06:20;30.27;;;22.13;;
2674;SDS011;1347;42.122;24.746;2022-11-15T04:08:46;31.43;;;21.30;;
2674;SDS011;1347;42.122;24.746;2022-11-15T04:11:13;37.20;;;23.90;;
2674;SDS011;1347;42.122;24.746;2022-11-15T04:13:40;33.77;;;23.80;;
2674;SDS011;1347;42.122;24.746;2022-11-15T04:16:07;37.00;;;25.63;;
2674;SDS011;1347;42.122;24.746;2022-11-15T04:18:34;38.63;;;23.77;;
2674;SDS011;1347;42.122;24.746;2022-11-15T04:21:01;36.90;;;24.63;;
2674;SDS011;1347;42.122;24.746;2022-11-15T04:23:46;34.37;;;23.70;;
2674;SDS011;1347;42.122;24.746;2022-11-15T04:26:31;35.03;;;23.80;;
2674;SDS011;1347;42.122;24.746;2022-11-15T04:28:58;35.40;;;23.80;;
2674;SDS011;1347;42.122;24.746;2022-11-15T04:31:42;39.00;;;23.73;;
2674;SDS011;1347;42.122;24.746;2022-11-15T04:34:09;34.97;;;24.13;;
2674;SDS011;1347;42.122;24.746;2022-11-15T04:36:35;38.30;;;23.10;;
2674;SDS011;1347;42.122;24.746;2022-11-15T04:39:21;31.60;;;23.90;;
2674;SDS011;1347;42.122;24.746;2022-11-15T04:41:48;32.60;;;22.57;;
2674;SDS011;1347;42.122;24.746;2022-11-15T04:44:15;33.43;;;21.40;;
2674;SDS011;1347;42.122;24.746;2022-11-15T04:46:42;37.17;;;23.57;;
2674;SDS011;1347;42.122;24.746;2022-11-15T04:49:09;35.37;;;23.80;;
2674;SDS011;1347;42.122;24.746;2022-11-15T04:51:36;31.43;;;24.20;;
2674;SDS011;1347;42.122;24.746;2022-11-15T04:54:03;32.20;;;23.33;;
2674;SDS011;1347;42.122;24.746;2022-11-15T04:56:31;38.10;;;24.00;;
2674;SDS011;1347;42.122;24.746;2022-11-15T04:58:58;31.70;;;22.83;;
2674;SDS011;1347;42.122;24.746;2022-11-15T05:01:25;33.77;;;22.93;;
2674;SDS011;1347;42.122;24.746;2022-11-15T05:03:52;35.50;;;23.80;;
2674;SDS011;1347;42.122;24.746;2022-11-15T05:06:39;37.70;;;26.80;;
2674;SDS011;1347;42.122;24.746;2022-11-15T05:09:06;39.13;;;28.63;;
2674;SDS011;1347;42.122;24.746;2022-11-15T05:11:34;34.33;;;24.33;;
2674;SDS011;1347;42.122;24.746;2022-11-15T05:14:02;37.37;;;25.70;;
2674;SDS011;1347;42.122;24.746;2022-11-15T05:16:28;40.60;;;27.80;;
2674;SDS011;1347;42.122;24.746;2022-11-15T05:18:55;37.03;;;26.10;;
2674;SDS011;1347;42.122;24.746;2022-11-15T05:21:22;31.70;;;24.10;;
2674;SDS011;1347;42.122;24.746;2022-11-15T05:23:49;34.33;;;22.67;;
2674;SDS011;1347;42.122;24.746;2022-11-15T05:26:16;34.87;;;24.03;;
2674;SDS011;1347;42.122;24.746;2022-11-15T05:28:46;45.07;;;26.57;;
2674;SDS011;1347;42.122;24.746;2022-11-15T05:31:14;42.07;;;25.27;;
2674;SDS011;1347;42.122;24.746;2022-11-15T05:33:42;36.97;;;24.87;;
2674;SDS011;1347;42.122;24.746;2022-11-15T05:36:12;34.40;;;24.30;;
2674;SDS011;1347;42.122;24.746;2022-11-15T05:38:43;35.17;;;26.20;;
2674;SDS011;1347;42.122;24.746;2022-11-15T05:41:10;41.00;;;27.23;;
2674;SDS011;1347;42.122;24.746;2022-11-15T05:43:38;42.53;;;28.73;;
2674;SDS011;1347;42.122;24.746;2022-11-15T05:46:08;39.57;;;24.97;;
2674;SDS011;1347;42.122;24.746;2022-11-15T05:48:36;40.73;;;28.67;;
2674;SDS011;1347;42.122;24.746;2022-11-15T05:51:06;34.93;;;26.63;;
2674;SDS011;1347;42.122;24.746;2022-11-15T05:53:34;39.27;;;27.47;;
2674;SDS011;1347;42.122;24.746;2022-11-15T05:56:03;41.83;;;27.83;;
2674;SDS011;1347;42.122;24.746;2022-11-15T05:58:31;35.87;;;24.47;;
2674;SDS011;1347;42.122;24.746;2022-11-15T06:00:58;33.33;;;22.77;;
2674;SDS011;1347;42.122;24.746;2022-11-15T06:03:28;48.43;;;30.33;;
2674;SDS011;1347;42.122;24.746;2022-11-15T06:05:56;37.90;;;24.73;;
2674;SDS011;1347;42.122;24.746;2022-11-15T06:08:22;37.20;;;24.23;;
2674;SDS011;1347;42.122;24.746;2022-11-15T06:10:49;35.07;;;23.17;;
2674;SDS011;1347;42.122;24.746;2022-11-15T06:13:16;41.43;;;24.50;;
2674;SDS011;1347;42.122;24.746;2022-11-15T06:15:43;41.87;;;27.27;;
2674;SDS011;1347;42.122;24.746;2022-11-15T06:18:10;36.23;;;25.40;;
2674;SDS011;1347;42.122;24.746;2022-11-15T06:20:38;39.03;;;26.53;;
2674;SDS011;1347;42.122;24.746;2022-11-15T06:23:05;40.73;;;27.13;;
2674;SDS011;1347;42.122;24.746;2022-11-15T06:25:32;40.47;;;25.37;;
2674;SDS011;1347;42.122;24.746;2022-11-15T06:27:59;35.20;;;25.07;;
2674;SDS011;1347;42.122;24.746;2022-11-15T06:30:26;40.73;;;28.33;;
2674;SDS011;1347;42.122;24.746;2022-11-15T06:32:58;46.47;;;29.13;;
2674;SDS011;1347;42.122;24.746;2022-11-15T06:35:27;38.37;;;27.00;;
2674;SDS011;1347;42.122;24.746;2022-11-15T06:37:56;45.33;;;31.30;;
2674;SDS011;1347;42.122;24.746;2022-11-15T06:40:29;41.57;;;31.43;;
2674;SDS011;1347;42.122;24.746;2022-11-15T06:42:59;50.47;;;31.50;;
2674;SDS011;1347;42.122;24.746;2022-11-15T06:45:26;43.53;;;29.57;;
2674;SDS011;1347;42.122;24.746;2022-11-15T06:47:53;48.93;;;30.00;;
2674;SDS011;1347;42.122;24.746;2022-11-15T06:50:20;41.63;;;26.03;;
2674;SDS011;1347;42.122;24.746;2022-11-15T06:52:47;43.00;;;26.87;;
2674;SDS011;1347;42.122;24.746;2022-11-15T06:55:15;32.20;;;24.97;;
2674;SDS011;1347;42.122;24.746;2022-11-15T06:57:49;35.27;;;25.87;;
2674;SDS011;1347;42.122;24.746;2022-11-15T07:00:17;37.47;;;25.80;;
2674;SDS011;1347;42.122;24.746;2022-11-15T07:02:45;44.23;;;28.77;;
2674;SDS011;1347;42.122;24.746;2022-11-15T07:05:13;35.23;;;25.27;;
2674;SDS011;1347;42.122;24.746;2022-11-15T07:07:41;54.73;;;27.10;;
2674;SDS011;1347;42.122;24.746;2022-11-15T07:10:08;55.20;;;28.23;;
2674;SDS011;1347;42.122;24.746;2022-11-15T07:12:37;44.07;;;27.80;;
2674;SDS011;1347;42.122;24.746;2022-11-15T07:15:04;37.80;;;25.50;;
2674;SDS011;1347;42.122;24.746;2022-11-15T07:17:32;41.03;;;25.37;;
2674;SDS011;1347;42.122;24.746;2022-11-15T07:19:59;43.87;;;25.10;;
2674;SDS011;1347;42.122;24.746;2022-11-15T07:22:26;42.00;;;27.00;;
2674;SDS011;1347;42.122;24.746;2022-11-15T07:24:52;33.17;;;22.90;;
2674;SDS011;1347;42.122;24.746;2022-11-15T07:27:19;36.43;;;25.50;;
2674;SDS011;1347;42.122;24.746;2022-11-15T07:29:48;35.30;;;23.87;;
2674;SDS011;1347;42.122;24.746;2022-11-15T07:32:15;27.00;;;21.90;;
2674;SDS011;1347;42.122;24.746;2022-11-15T07:34:42;32.33;;;21.43;;
2674;SDS011;1347;42.122;24.746;2022-11-15T07:37:10;40.27;;;21.17;;
2674;SDS011;1347;42.122;24.746;2022-11-15T07:39:37;28.80;;;21.07;;
2674;SDS011;1347;42.122;24.746;2022-11-15T07:42:04;28.47;;;23.10;;
2674;SDS011;1347;42.122;24.746;2022-11-15T07:44:50;27.53;;;20.53;;
2674;SDS011;1347;42.122;24.746;2022-11-15T07:47:17;29.93;;;23.00;;
2674;SDS011;1347;42.122;24.746;2022-11-15T07:49:44;27.47;;;23.00;;
2674;SDS011;1347;42.122;24.746;2022-11-15T07:52:12;30.87;;;23.20;;
2674;SDS011;1347;42.122;24.746;2022-11-15T07:54:39;27.83;;;24.23;;
2674;SDS011;1347;42.122;24.746;2022-11-15T07:57:06;30.07;;;25.33;;
2674;SDS011;1347;42.122;24.746;2022-11-15T07:59:34;32.43;;;25.97;;
2674;SDS011;1347;42.122;24.746;2022-11-15T08:02:02;30.93;;;24.63;;
2674;SDS011;1347;42.122;24.746;2022-11-15T08:04:29;28.97;;;25.50;;
2674;SDS011;1347;42.122;24.746;2022-11-15T08:06:56;34.53;;;25.30;;
2674;SDS011;1347;42.122;24.746;2022-11-15T08:09:23;30.10;;;24.90;;
2674;SDS011;1347;42.122;24.746;2022-11-15T08:11:50;37.03;;;27.40;;
2674;SDS011;1347;42.122;24.746;2022-11-15T08:14:17;35.30;;;27.40;;
2674;SDS011;1347;42.122;24.746;2022-11-15T08:16:46;31.53;;;28.13;;
2674;SDS011;1347;42.122;24.746;2022-11-15T08:19:14;39.20;;;30.17;;
2674;SDS011;1347;42.122;24.746;2022-11-15T08:21:41;34.93;;;30.20;;
2674;SDS011;1347;42.122;24.746;2022-11-15T08:24:09;34.47;;;30.67;;
2674;SDS011;1347;42.122;24.746;2022-11-15T08:26:37;33.07;;;29.33;;
2674;SDS011;1347;42.122;24.746;2022-11-15T08:29:04;39.40;;;29.80;;
2674;SDS011;1347;42.122;24.746;2022-11-15T08:31:32;33.20;;;28.70;;
2674;SDS011;1347;42.122;24.746;2022-11-15T08:34:00;31.90;;;26.50;;
2674;SDS011;1347;42.122;24.746;2022-11-15T08:36:28;32.10;;;24.97;;
2674;SDS011;1347;42.122;24.746;2022-11-15T08:38:55;27.50;;;24.50;;
2674;SDS011;1347;42.122;24.746;2022-11-15T08:41:24;33.10;;;22.37;;
2674;SDS011;1347;42.122;24.746;2022-11-15T08:43:52;28.20;;;24.17;;
2674;SDS011;1347;42.122;24.746;2022-11-15T08:46:19;32.73;;;25.37;;
2674;SDS011;1347;42.122;24.746;2022-11-15T08:48:46;27.73;;;24.23;;
2674;SDS011;1347;42.122;24.746;2022-11-15T08:51:13;30.13;;;23.83;;
2674;SDS011;1347;42.122;24.746;2022-11-15T08:53:42;26.47;;;23.53;;
2674;SDS011;1347;42.122;24.746;2022-11-15T08:56:09;30.30;;;24.43;;
2674;SDS011;1347;42.122;24.746;2022-11-15T08:58:37;31.10;;;25.03;;
2674;SDS011;1347;42.122;24.746;2022-11-15T09:01:04;26.67;;;23.10;;
2674;SDS011;1347;42.122;24.746;2022-11-15T09:03:31;29.60;;;24.80;;
2674;SDS011;1347;42.122;24.746;2022-11-15T09:05:59;32.50;;;27.40;;
2674;SDS011;1347;42.122;24.746;2022-11-15T09:08:29;30.27;;;25.77;;
2674;SDS011;1347;42.122;24.746;2022-11-15T09:10:58;30.97;;;26.70;;
2674;SDS011;1347;42.122;24.746;2022-11-15T09:13:28;37.70;;;28.30;;
2674;SDS011;1347;42.122;24.746;2022-11-15T09:15:57;30.67;;;24.37;;
2674;SDS011;1347;42.122;24.746;2022-11-15T09:18:24;32.07;;;26.33;;
2674;SDS011;1347;42.122;24.746;2022-11-15T09:20:51;34.23;;;28.63;;
2674;SDS011;1347;42.122;24.746;2022-11-15T09:23:21;30.63;;;25.70;;
2674;SDS011;1347;42.122;24.746;2022-11-15T09:25:48;32.57;;;24.60;;
2674;SDS011;1347;42.122;24.746;2022-11-15T09:28:17;28.40;;;25.10;;
2674;SDS011;1347;42.122;24.746;2022-11-15T09:30:44;33.10;;;25.87;;
2674;SDS011;1347;42.122;24.746;2022-11-15T09:33:12;34.70;;;28.13;;
2674;SDS011;1347;42.122;24.746;2022-11-15T09:35:39;38.07;;;25.33;;
2674;SDS011;1347;42.122;24.746;2022-11-15T09:38:06;28.47;;;25.20;;
2674;SDS011;1347;42.122;24.746;2022-11-15T09:40:35;32.20;;;26.47;;
2674;SDS011;1347;42.122;24.746;2022-11-15T09:43:10;35.07;;;25.40;;
2674;SDS011;1347;42.122;24.746;2022-11-15T09:45:57;30.60;;;27.40;;
2674;SDS011;1347;42.122;24.746;2022-11-15T09:48:39;62.57;;;40.43;;
2674;SDS011;1347;42.122;24.746;2022-11-15T09:51:20;27.57;;;24.87;;
2674;SDS011;1347;42.122;24.746;2022-11-15T09:53:55;46.93;;;29.53;;
2674;SDS011;1347;42.122;24.746;2022-11-15T09:56:26;30.10;;;24.97;;
2674;SDS011;1347;42.122;24.746;2022-11-15T09:58:59;32.70;;;26.60;;
2674;SDS011;1347;42.122;24.746;2022-11-15T10:01:38;29.10;;;25.53;;
2674;SDS011;1347;42.122;24.746;2022-11-15T10:04:10;36.00;;;26.53;;
2674;SDS011;1347;42.122;24.746;2022-11-15T10:06:40;34.13;;;26.57;;
2674;SDS011;1347;42.122;24.746;2022-11-15T10:09:13;32.83;;;27.10;;
2674;SDS011;1347;42.122;24.746;2022-11-15T10:11:43;31.00;;;25.23;;
2674;SDS011;1347;42.122;24.746;2022-11-15T10:14:13;34.37;;;25.93;;
2674;SDS011;1347;42.122;24.746;2022-11-15T10:16:58;31.40;;;26.70;;
2674;SDS011;1347;42.122;24.746;2022-11-15T10:19:37;32.17;;;26.43;;
2674;SDS011;1347;42.122;24.746;2022-11-15T10:22:17;30.97;;;27.50;;
2674;SDS011;1347;42.122;24.746;2022-11-15T10:24:52;33.53;;;28.30;;
2674;SDS011;1347;42.122;24.746;2022-11-15T10:27:33;31.90;;;27.07;;
2674;SDS011;1347;42.122;24.746;2022-11-15T10:30:02;31.27;;;27.30;;
2674;SDS011;1347;42.122;24.746;2022-11-15T10:32:36;31.90;;;25.50;;
2674;SDS011;1347;42.122;24.746;2022-11-15T10:35:15;32.57;;;26.70;;
2674;SDS011;1347;42.122;24.746;2022-11-15T10:37:47;35.87;;;26.50;;
2674;SDS011;1347;42.122;24.746;2022-11-15T10:40:18;30.10;;;25.90;;
2674;SDS011;1347;42.122;24.746;2022-11-15T10:42:47;32.93;;;24.40;;
2674;SDS011;1347;42.122;24.746;2022-11-15T10:45:24;36.07;;;26.67;;
2674;SDS011;1347;42.122;24.746;2022-11-15T10:47:52;32.00;;;27.50;;
2674;SDS011;1347;42.122;24.746;2022-11-15T10:50:27;37.27;;;26.30;;
2674;SDS011;1347;42.122;24.746;2022-11-15T10:52:56;32.23;;;25.57;;
2674;SDS011;1347;42.122;24.746;2022-11-15T10:55:27;28.40;;;23.53;;
2674;SDS011;1347;42.122;24.746;2022-11-15T10:57:58;34.10;;;24.70;;
2674;SDS011;1347;42.122;24.746;2022-11-15T11:00:32;32.10;;;26.30;;
2674;SDS011;1347;42.122;24.746;2022-11-15T11:03:02;38.00;;;28.30;;
2674;SDS011;1347;42.122;24.746;2022-11-15T11:05:32;33.03;;;26.23;;
2674;SDS011;1347;42.122;24.746;2022-11-15T11:08:02;34.63;;;26.03;;
2674;SDS011;1347;42.122;24.746;2022-11-15T11:10:31;31.27;;;25.73;;
2674;SDS011;1347;42.122;24.746;2022-11-15T11:13:12;33.70;;;27.20;;
2674;SDS011;1347;42.122;24.746;2022-11-15T11:15:41;29.97;;;26.00;;
2674;SDS011;1347;42.122;24.746;2022-11-15T11:18:13;32.80;;;26.33;;
2674;SDS011;1347;42.122;24.746;2022-11-15T11:20:49;35.00;;;26.00;;
2674;SDS011;1347;42.122;24.746;2022-11-15T11:23:24;35.83;;;27.30;;
2674;SDS011;1347;42.122;24.746;2022-11-15T11:26:12;37.50;;;28.13;;
2674;SDS011;1347;42.122;24.746;2022-11-15T11:28:53;32.27;;;26.30;;
2674;SDS011;1347;42.122;24.746;2022-11-15T11:31:29;39.40;;;30.67;;
2674;SDS011;1347;42.122;24.746;2022-11-15T11:34:04;34.63;;;27.70;;
2674;SDS011;1347;42.122;24.746;2022-11-15T11:36:43;36.13;;;28.10;;
2674;SDS011;1347;42.122;24.746;2022-11-15T11:39:22;34.37;;;27.30;;
2674;SDS011;1347;42.122;24.746;2022-11-15T11:41:56;34.23;;;28.60;;
2674;SDS011;1347;42.122;24.746;2022-11-15T11:44:38;35.57;;;27.97;;
2674;SDS011;1347;42.122;24.746;2022-11-15T11:47:19;37.27;;;28.60;;
2674;SDS011;1347;42.122;24.746;2022-11-15T11:49:50;36.23;;;27.80;;
2674;SDS011;1347;42.122;24.746;2022-11-15T11:52:21;33.50;;;28.07;;
2674;SDS011;1347;42.122;24.746;2022-11-15T11:54:55;39.93;;;30.23;;
2674;SDS011;1347;42.122;24.746;2022-11-15T11:57:34;38.80;;;29.93;;
2674;SDS011;1347;42.122;24.746;2022-11-15T12:00:16;44.47;;;33.83;;
2674;SDS011;1347;42.122;24.746;2022-11-15T12:02:49;39.57;;;30.17;;
2674;SDS011;1347;42.122;24.746;2022-11-15T12:05:28;42.10;;;29.70;;
2674;SDS011;1347;42.122;24.746;2022-11-15T12:08:00;42.40;;;29.40;;
2674;SDS011;1347;42.122;24.746;2022-11-15T12:10:39;37.70;;;29.47;;
2674;SDS011;1347;42.122;24.746;2022-11-15T12:13:11;37.20;;;30.17;;
2674;SDS011;1347;42.122;24.746;2022-11-15T12:15:43;37.63;;;30.10;;
2674;SDS011;1347;42.122;24.746;2022-11-15T12:18:18;35.77;;;28.77;;
2674;SDS011;1347;42.122;24.746;2022-11-15T12:20:49;32.87;;;26.97;;
2674;SDS011;1347;42.122;24.746;2022-11-15T12:23:21;35.47;;;27.23;;
2674;SDS011;1347;42.122;24.746;2022-11-15T12:25:55;35.03;;;27.87;;
2674;SDS011;1347;42.122;24.746;2022-11-15T12:28:28;32.27;;;26.83;;
2674;SDS011;1347;42.122;24.746;2022-11-15T12:31:02;33.37;;;27.50;;
2674;SDS011;1347;42.122;24.746;2022-11-15T12:33:38;38.23;;;27.50;;
2674;SDS011;1347;42.122;24.746;2022-11-15T12:36:09;39.70;;;30.17;;
2674;SDS011;1347;42.122;24.746;2022-11-15T12:41:23;35.50;;;28.60;;
2674;SDS011;1347;42.122;24.746;2022-11-15T12:43:53;33.67;;;27.67;;
2674;SDS011;1347;42.122;24.746;2022-11-15T12:46:22;43.83;;;32.43;;
2674;SDS011;1347;42.122;24.746;2022-11-15T12:49:23;38.10;;;29.80;;
2674;SDS011;1347;42.122;24.746;2022-11-15T12:52:09;46.00;;;29.30;;
2674;SDS011;1347;42.122;24.746;2022-11-15T12:54:50;35.57;;;29.37;;
2674;SDS011;1347;42.122;24.746;2022-11-15T12:57:32;35.50;;;27.43;;
2674;SDS011;1347;42.122;24.746;2022-11-15T13:03:17;40.13;;;28.93;;
2674;SDS011;1347;42.122;24.746;2022-11-15T13:06:03;38.00;;;28.53;;
2674;SDS011;1347;42.122;24.746;2022-11-15T13:08:36;34.37;;;28.90;;
2674;SDS011;1347;42.122;24.746;2022-11-15T13:19:59;34.93;;;27.67;;
2674;SDS011;1347;42.122;24.746;2022-11-15T13:22:40;34.23;;;26.73;;
2674;SDS011;1347;42.122;24.746;2022-11-15T13:25:27;34.87;;;26.47;;
2674;SDS011;1347;42.122;24.746;2022-11-15T13:28:31;36.10;;;27.77;;
2674;SDS011;1347;42.122;24.746;2022-11-15T13:31:00;32.07;;;25.67;;
2674;SDS011;1347;42.122;24.746;2022-11-15T13:33:31;32.67;;;27.77;;
2674;SDS011;1347;42.122;24.746;2022-11-15T13:36:01;36.60;;;28.33;;
2674;SDS011;1347;42.122;24.746;2022-11-15T13:38:33;39.50;;;29.07;;
2674;SDS011;1347;42.122;24.746;2022-11-15T13:41:10;40.90;;;29.30;;
2674;SDS011;1347;42.122;24.746;2022-11-15T13:43:40;38.97;;;29.43;;
2674;SDS011;1347;42.122;24.746;2022-11-15T13:46:11;37.83;;;28.60;;
2674;SDS011;1347;42.122;24.746;2022-11-15T13:48:39;38.13;;;30.23;;
2674;SDS011;1347;42.122;24.746;2022-11-15T13:51:08;36.33;;;27.80;;
2674;SDS011;1347;42.122;24.746;2022-11-15T13:53:43;40.10;;;30.00;;
2674;SDS011;1347;42.122;24.746;2022-11-15T13:56:18;39.60;;;32.07;;
2674;SDS011;1347;42.122;24.746;2022-11-15T13:58:47;44.20;;;32.53;;
2674;SDS011;1347;42.122;24.746;2022-11-15T14:01:15;41.57;;;31.57;;
2674;SDS011;1347;42.122;24.746;2022-11-15T14:03:53;41.30;;;32.37;;
2674;SDS011;1347;42.122;24.746;2022-11-15T14:06:23;43.50;;;32.97;;
2674;SDS011;1347;42.122;24.746;2022-11-15T14:09:16;38.37;;;30.43;;
2674;SDS011;1347;42.122;24.746;2022-11-15T14:11:58;42.07;;;30.67;;
2674;SDS011;1347;42.122;24.746;2022-11-15T14:14:28;40.13;;;30.20;;
2674;SDS011;1347;42.122;24.746;2022-11-15T14:16:57;46.43;;;31.80;;
2674;SDS011;1347;42.122;24.746;2022-11-15T14:19:38;40.83;;;30.40;;
2674;SDS011;1347;42.122;24.746;2022-11-15T14:22:19;42.30;;;32.10;;
2674;SDS011;1347;42.122;24.746;2022-11-15T14:27:33;37.27;;;31.77;;
2674;SDS011;1347;42.122;24.746;2022-11-15T14:30:00;41.43;;;32.63;;
2674;SDS011;1347;42.122;24.746;2022-11-15T14:32:28;38.60;;;30.40;;
2674;SDS011;1347;42.122;24.746;2022-11-15T14:35:03;43.47;;;30.33;;
2674;SDS011;1347;42.122;24.746;2022-11-15T14:37:38;45.77;;;33.50;;
2674;SDS011;1347;42.122;24.746;2022-11-15T14:40:06;48.63;;;33.60;;
2674;SDS011;1347;42.122;24.746;2022-11-15T14:42:38;44.40;;;33.93;;
2674;SDS011;1347;42.122;24.746;2022-11-15T14:45:07;43.50;;;33.10;;
2674;SDS011;1347;42.122;24.746;2022-11-15T14:47:38;40.03;;;31.70;;
2674;SDS011;1347;42.122;24.746;2022-11-15T14:50:05;60.90;;;35.10;;
2674;SDS011;1347;42.122;24.746;2022-11-15T14:52:33;41.23;;;31.03;;
2674;SDS011;1347;42.122;24.746;2022-11-15T14:55:00;46.50;;;33.93;;
2674;SDS011;1347;42.122;24.746;2022-11-15T14:57:31;43.37;;;33.70;;
2674;SDS011;1347;42.122;24.746;2022-11-15T14:59:58;46.20;;;35.00;;
2674;SDS011;1347;42.122;24.746;2022-11-15T15:02:25;49.43;;;34.23;;
2674;SDS011;1347;42.122;24.746;2022-11-15T15:04:53;46.27;;;35.10;;
2674;SDS011;1347;42.122;24.746;2022-11-15T15:07:20;47.63;;;34.30;;
2674;SDS011;1347;42.122;24.746;2022-11-15T15:09:48;42.90;;;34.20;;
2674;SDS011;1347;42.122;24.746;2022-11-15T15:12:16;50.10;;;35.50;;
2674;SDS011;1347;42.122;24.746;2022-11-15T15:14:45;56.00;;;34.17;;